Liberty — WDD6569 — position and weather

sailwx.info

Track history (hours):
 
Tides and Currents Weather Stations Pressure Air Temp Water Temp Dewpoint Dewpoint Depression Visibility Wind Speed Wind Dir Waves Ship Positions

Liberty

Owner: Tampa Tugs Three, LLC, Tampa, FL. More information available from US FCC via Universal Licensing System and Coast Guard Vessel Documentation Center.

Last reported at 2017-Nov-24 03:30 UTC. Time now 2017-Nov-24 03:43 UTC.
Position N 27°54' W 082°26'.

Length 29 m.

Type: Tug. MMSI: 367174670.

Date/timePositionNaut miles runAvg speedWind from/ knotsBaromVisibWave heightAir tempDewpointWater temp
2017-Nov-24 03:30N 27°54' W 082°26'0 0.0
2017-Nov-24 03:00N 27°54' W 082°26'0 0.0
2017-Nov-24 02:30N 27°54' W 082°26'0 0.0
2017-Nov-24 02:00N 27°54' W 082°26'0 0.2
2017-Nov-24 01:30N 27°55' W 082°26'2 3.9
2017-Nov-24 01:00N 27°57' W 082°27'1 1.2
2017-Nov-24 00:30N 27°57' W 082°27'1 1.5
2017-Nov-24 00:00N 27°56' W 082°27'1 2.0
2017-Nov-23 23:30N 27°56' W 082°26'0 0.6
2017-Nov-23 23:00N 27°56' W 082°26'0 0.0
2017-Nov-23 22:30N 27°56' W 082°26'0 0.0
2017-Nov-23 22:00N 27°56' W 082°26'0 0.0
2017-Nov-23 21:30N 27°56' W 082°26'0 0.0
2017-Nov-23 21:00N 27°56' W 082°26'0 0.0
2017-Nov-23 20:30N 27°56' W 082°26'0 0.0
2017-Nov-23 20:00N 27°56' W 082°26'0 0.0
2017-Nov-23 19:30N 27°56' W 082°26'0 0.0
2017-Nov-23 19:00N 27°56' W 082°26'0 0.0
2017-Nov-23 18:30N 27°56' W 082°26'0 0.0
2017-Nov-23 18:00N 27°56' W 082°26'0 0.0
2017-Nov-23 17:30N 27°56' W 082°26'0 0.0
2017-Nov-23 17:00N 27°56' W 082°26'0 0.0
2017-Nov-23 16:30N 27°56' W 082°26'0 0.0
2017-Nov-23 16:00N 27°56' W 082°26'0 0.0
2017-Nov-23 15:30N 27°56' W 082°26'0 0.0
2017-Nov-23 15:00N 27°56' W 082°26'0 0.0
2017-Nov-23 14:30N 27°56' W 082°26'0 0.0
2017-Nov-23 14:00N 27°56' W 082°26'0 0.0
2017-Nov-23 13:30N 27°56' W 082°26'0 0.0
2017-Nov-23 13:00N 27°56' W 082°26'0 0.0
2017-Nov-23 12:30N 27°56' W 082°26'1 1.7
2017-Nov-23 12:00N 27°56' W 082°27'2 3.2
2017-Nov-23 11:30N 27°57' W 082°27'0 0.6
2017-Nov-23 11:00N 27°57' W 082°27'1 1.8
2017-Nov-23 10:30N 27°56' W 082°27'510.0
2017-Nov-23 10:00N 27°51' W 082°27'3 5.6
2017-Nov-23 09:30N 27°51' W 082°24'0 0.1
2017-Nov-23 09:00N 27°51' W 082°24'1 2.7
2017-Nov-23 08:30N 27°51' W 082°25'2 3.4
2017-Nov-23 08:00N 27°50' W 082°27'3 0.6
2017-Nov-23 03:18N 27°48' W 082°25'0 0.1
2017-Nov-23 02:52N 27°48' W 082°25'0 1.1
2017-Nov-23 02:30N 27°48' W 082°25'3 3.9
2017-Nov-23 01:51N 27°51' W 082°27'2 6.8
2017-Nov-23 01:30N 27°51' W 082°24'1 0.9
2017-Nov-23 00:48N 27°51' W 082°23'1 2.0
2017-Nov-23 00:30N 27°51' W 082°24'3 6.0
2017-Nov-23 00:00N 27°53' W 082°26'3 5.4
2017-Nov-22 23:30N 27°56' W 082°26'0 0.0
2017-Nov-22 23:00N 27°56' W 082°26'0 0.0
2017-Nov-22 22:30N 27°56' W 082°26'0 0.0
2017-Nov-22 22:00N 27°56' W 082°26'0 0.0
2017-Nov-22 21:30N 27°56' W 082°26'0 0.0
2017-Nov-22 21:00N 27°56' W 082°26'0 0.0
2017-Nov-22 20:30N 27°56' W 082°26'0 0.0
2017-Nov-22 20:00N 27°56' W 082°26'0 0.0
2017-Nov-22 19:30N 27°56' W 082°26'  
2017-Nov-20 00:30N 27°54' W 082°26'2 3.0
2017-Nov-20 00:00N 27°56' W 082°27'0 0.7
2017-Nov-19 23:30N 27°56' W 082°27'2 4.9
2017-Nov-19 23:00N 27°54' W 082°26'1 1.7
2017-Nov-19 22:30N 27°53' W 082°27'0 0.0
2017-Nov-19 22:00N 27°53' W 082°26'2 3.4
2017-Nov-19 21:30N 27°55' W 082°26'1 1.2
2017-Nov-19 21:00N 27°55' W 082°27'0 0.3
2017-Nov-19 20:30N 27°55' W 082°27'1 1.2
2017-Nov-19 20:00N 27°54' W 082°26'1 2.2
2017-Nov-19 19:30N 27°55' W 082°26'1 1.5
2017-Nov-19 19:00N 27°56' W 082°26'0 0.0
2017-Nov-19 18:30N 27°56' W 082°26'0 0.0
2017-Nov-19 18:00N 27°56' W 082°26'0 0.0
2017-Nov-19 17:30N 27°56' W 082°26'1 2.9
2017-Nov-19 17:00N 27°55' W 082°26'1 1.3
2017-Nov-19 16:30N 27°54' W 082°26'3 5.3
2017-Nov-19 16:00N 27°51' W 082°27'4 8.0
2017-Nov-19 15:30N 27°48' W 082°29'4 7.5
2017-Nov-19 15:00N 27°45' W 082°31'3 0.4
2017-Nov-19 06:13N 27°42' W 082°33'210.7
2017-Nov-19 06:00N 27°44' W 082°32'5 9.7
2017-Nov-19 05:30N 27°48' W 082°29'5 9.8
2017-Nov-19 05:00N 27°52' W 082°27'2 4.4
2017-Nov-19 04:30N 27°54' W 082°26'0 0.0
2017-Nov-19 04:00N 27°54' W 082°26'0 0.0
2017-Nov-19 03:30N 27°54' W 082°26'0 0.0
2017-Nov-19 03:00N 27°54' W 082°26'0 0.0
2017-Nov-19 02:30N 27°54' W 082°26'1 2.7
2017-Nov-19 02:00N 27°56' W 082°26'0 0.4
2017-Nov-19 01:30N 27°56' W 082°26'1 1.4
2017-Nov-19 01:00N 27°55' W 082°26'1 1.6
2017-Nov-19 00:30N 27°55' W 082°27'0 0.3
2017-Nov-19 00:01N 27°55' W 082°27'1 2.2
2017-Nov-18 23:30N 27°56' W 082°26'0 0.0
2017-Nov-18 23:00N 27°56' W 082°26'0 0.0
2017-Nov-18 22:30N 27°56' W 082°26'0 0.0
2017-Nov-18 22:00N 27°56' W 082°26'0 0.0
2017-Nov-18 21:30N 27°56' W 082°26'0 0.0
2017-Nov-18 21:00N 27°56' W 082°26'0 0.0
2017-Nov-18 20:30N 27°56' W 082°26'0 0.0
2017-Nov-18 20:00N 27°56' W 082°26'0 0.0
2017-Nov-18 19:30N 27°56' W 082°26'0 0.0
2017-Nov-18 19:00N 27°56' W 082°26'0 0.0
2017-Nov-18 18:30N 27°56' W 082°26'0 0.0
2017-Nov-18 18:00N 27°56' W 082°26'1 1.4
2017-Nov-18 17:30N 27°55' W 082°26'1 2.4
2017-Nov-18 17:00N 27°54' W 082°26'0 0.2
2017-Nov-18 16:30N 27°54' W 082°26'2 3.1
2017-Nov-18 16:00N 27°53' W 082°27'0 0.9
2017-Nov-18 15:30N 27°53' W 082°26'1 2.6
2017-Nov-18 15:00N 27°54' W 082°26'0 0.0
2017-Nov-18 14:30N 27°54' W 082°26'0 0.0
2017-Nov-18 14:00N 27°54' W 082°26'0 0.0
2017-Nov-18 13:30N 27°54' W 082°26'0 0.0
2017-Nov-18 13:00N 27°54' W 082°26'0 0.0
2017-Nov-18 12:30N 27°54' W 082°26'0 0.0
2017-Nov-18 12:00N 27°54' W 082°26'0 0.0
2017-Nov-18 11:30N 27°54' W 082°26'0 0.0
2017-Nov-18 11:00N 27°54' W 082°26'1 1.5
2017-Nov-18 10:30N 27°55' W 082°27'0 0.0
2017-Nov-18 10:00N 27°55' W 082°27'1 1.7
2017-Nov-18 09:30N 27°56' W 082°26'0 0.6
2017-Nov-18 09:00N 27°56' W 082°26'1 1.6
2017-Nov-18 08:30N 27°55' W 082°26'2 4.8
2017-Nov-18 08:00N 27°53' W 082°27'1 1.2
2017-Nov-18 07:30N 27°53' W 082°26'3 5.1
2017-Nov-18 07:00N 27°56' W 082°26'0 0.0
2017-Nov-18 06:30N 27°56' W 082°26'0 0.0
2017-Nov-18 06:00N 27°56' W 082°26'0 0.0
2017-Nov-18 05:30N 27°56' W 082°26'0 0.0
2017-Nov-18 05:00N 27°56' W 082°26'0 0.0
2017-Nov-18 04:30N 27°56' W 082°26'0 0.0
2017-Nov-18 04:00N 27°56' W 082°26'0 0.0
2017-Nov-18 03:30N 27°56' W 082°26'0 0.0
2017-Nov-18 03:00N 27°56' W 082°26'0 0.0
2017-Nov-18 02:30N 27°56' W 082°26'0 0.0
2017-Nov-18 02:00N 27°56' W 082°26'0 0.0
2017-Nov-18 01:30N 27°56' W 082°26'0 0.0
2017-Nov-18 01:00N 27°56' W 082°26'0 0.0
2017-Nov-18 00:30N 27°56' W 082°26'0 0.0
2017-Nov-18 00:00N 27°56' W 082°26'0 0.0
2017-Nov-17 23:30N 27°56' W 082°26'0 0.0
2017-Nov-17 23:00N 27°56' W 082°26'0 0.0
2017-Nov-17 22:30N 27°56' W 082°26'0 0.0
2017-Nov-17 22:00N 27°56' W 082°26'0 0.0
2017-Nov-17 21:30N 27°56' W 082°26'0 0.0
2017-Nov-17 21:00N 27°56' W 082°26'0 0.0
2017-Nov-17 20:30N 27°56' W 082°26'0 0.0
2017-Nov-17 20:00N 27°56' W 082°26'0 0.0
2017-Nov-17 19:30N 27°56' W 082°26'0 0.0
2017-Nov-17 19:00N 27°56' W 082°26'0 0.0
2017-Nov-17 18:30N 27°56' W 082°26'0 0.0
2017-Nov-17 18:00N 27°56' W 082°26'0 0.0
2017-Nov-17 17:30N 27°56' W 082°26'1 1.6
2017-Nov-17 17:00N 27°56' W 082°27'1 2.4
2017-Nov-17 16:30N 27°57' W 082°27'0 0.1
2017-Nov-17 16:00N 27°57' W 082°27'0 0.1
2017-Nov-17 15:30N 27°57' W 082°27'2 4.1
2017-Nov-17 15:00N 27°55' W 082°26'1 2.3
2017-Nov-17 14:30N 27°56' W 082°26'0 0.0
2017-Nov-17 14:00N 27°56' W 082°26'0 0.0
2017-Nov-17 13:30N 27°56' W 082°26'0 0.0
2017-Nov-17 13:00N 27°56' W 082°26'0 0.0
2017-Nov-17 12:30N 27°56' W 082°26'0 0.0
2017-Nov-17 12:00N 27°56' W 082°26'0 0.0
2017-Nov-17 11:30N 27°56' W 082°26'0 0.0
2017-Nov-17 11:00N 27°56' W 082°26'0 0.0
2017-Nov-17 10:30N 27°56' W 082°26'0 0.0
2017-Nov-17 10:00N 27°56' W 082°26'0 0.0
2017-Nov-17 09:30N 27°56' W 082°26'0 0.0
2017-Nov-17 09:00N 27°56' W 082°26'0 0.0
2017-Nov-17 08:30N 27°56' W 082°26'0 0.0
2017-Nov-17 08:00N 27°56' W 082°26'0 0.0
2017-Nov-17 07:30N 27°56' W 082°26'0 0.0
2017-Nov-17 07:00N 27°56' W 082°26'0 0.0
2017-Nov-17 06:30N 27°56' W 082°26'0 0.0
2017-Nov-17 06:01N 27°56' W 082°26'1 1.4
2017-Nov-17 05:30N 27°56' W 082°27'1 1.7
2017-Nov-17 05:00N 27°57' W 082°27'0 0.0
2017-Nov-17 04:30N 27°57' W 082°27'0 0.0
2017-Nov-17 04:00N 27°57' W 082°27'0 0.7
2017-Nov-17 03:30N 27°57' W 082°27'0 0.0
2017-Nov-17 03:00N 27°57' W 082°27'1 2.2
2017-Nov-17 02:30N 27°56' W 082°27'1 1.8
2017-Nov-17 02:00N 27°55' W 082°27'0 0.1
2017-Nov-17 01:30N 27°55' W 082°27'1 2.0
2017-Nov-17 01:00N 27°56' W 082°26'0 0.0
2017-Nov-17 00:30N 27°56' W 082°26'0 0.0
2017-Nov-17 00:00N 27°56' W 082°26'0 0.0
2017-Nov-16 23:30N 27°56' W 082°26'0 0.0
2017-Nov-16 23:00N 27°56' W 082°26'0 0.0
2017-Nov-16 22:30N 27°56' W 082°26'0 0.0
2017-Nov-16 22:00N 27°56' W 082°26'0 0.0
2017-Nov-16 21:30N 27°56' W 082°26'0 0.0
2017-Nov-16 21:00N 27°56' W 082°26'0 0.0
2017-Nov-16 20:30N 27°56' W 082°26'0 0.0
2017-Nov-16 20:00N 27°56' W 082°26'0 0.0
2017-Nov-16 19:30N 27°56' W 082°26'0 0.0
2017-Nov-16 19:00N 27°56' W 082°26'0 0.0
2017-Nov-16 18:30N 27°56' W 082°26'0 0.0
2017-Nov-16 18:00N 27°56' W 082°26'0 0.0
2017-Nov-16 17:30N 27°56' W 082°26'0 0.0
2017-Nov-16 17:00N 27°56' W 082°26'0 0.0
2017-Nov-16 16:30N 27°56' W 082°26'0 0.0
2017-Nov-16 16:00N 27°56' W 082°26'0 0.0
2017-Nov-16 15:31N 27°56' W 082°26'4 8.9
2017-Nov-16 15:00N 27°52' W 082°27'5 9.8
2017-Nov-16 14:30N 27°48' W 082°30'4 8.3
2017-Nov-16 14:00N 27°49' W 082°34'3 6.1
2017-Nov-16 13:31N 27°52' W 082°33'0 0.5
2017-Nov-16 13:00N 27°52' W 082°33'3 5.7
2017-Nov-16 12:30N 27°49' W 082°34'3 7.1
2017-Nov-16 12:00N 27°47' W 082°31'5 9.7
2017-Nov-16 11:30N 27°50' W 082°27'5 9.9
2017-Nov-16 11:00N 27°55' W 082°26'1 1.4
2017-Nov-16 10:30N 27°56' W 082°26'0 0.0
2017-Nov-16 10:00N 27°56' W 082°26'0 0.0
2017-Nov-16 09:30N 27°56' W 082°26'0 0.0
2017-Nov-16 09:00N 27°56' W 082°26'0 0.0
2017-Nov-16 08:30N 27°56' W 082°26'0 0.0
2017-Nov-16 08:00N 27°56' W 082°26'0 0.0
2017-Nov-16 07:30N 27°56' W 082°26'0 0.0
2017-Nov-16 07:00N 27°56' W 082°26'0 0.0
2017-Nov-16 06:30N 27°56' W 082°26'0 0.0
2017-Nov-16 06:00N 27°56' W 082°26'0 0.0
2017-Nov-16 05:30N 27°56' W 082°26'0 0.0
2017-Nov-16 05:00N 27°56' W 082°26'0 0.0
2017-Nov-16 04:30N 27°56' W 082°26'0 0.0
2017-Nov-16 04:00N 27°56' W 082°26'0 0.0
2017-Nov-16 03:30N 27°56' W 082°26'0 0.0
2017-Nov-16 03:00N 27°56' W 082°26'0 0.0
2017-Nov-16 02:30N 27°56' W 082°26'0 0.0
2017-Nov-16 02:00N 27°56' W 082°26'1 2.4
2017-Nov-16 01:30N 27°55' W 082°26'2 4.1
2017-Nov-16 01:00N 27°57' W 082°27'0 0.0
2017-Nov-16 00:30N 27°57' W 082°27'1 1.7
2017-Nov-16 00:00N 27°56' W 082°27'2 4.0
2017-Nov-15 23:30N 27°54' W 082°26'0 0.4
2017-Nov-15 23:00N 27°54' W 082°26'1 1.0
2017-Nov-15 22:30N 27°54' W 082°26'1 2.9
2017-Nov-15 22:00N 27°56' W 082°26'0 0.4
2017-Nov-15 21:30N 27°56' W 082°26'0 0.9
2017-Nov-15 21:00N 27°55' W 082°25'3 6.2
2017-Nov-15 20:30N 27°52' W 082°27'4 3.5
2017-Nov-15 19:19N 27°48' W 082°25'2 4.9
2017-Nov-15 19:00N 27°49' W 082°26'5 9.4
2017-Nov-15 18:30N 27°47' W 082°31'4 1.2
2017-Nov-15 14:53N 27°47' W 082°36'3 8.6
2017-Nov-15 14:29N 27°50' W 082°34'2 4.9
2017-Nov-15 14:00N 27°52' W 082°33'0 0.4
2017-Nov-15 13:30N 27°52' W 082°33'1 1.2
2017-Nov-15 12:57N 27°51' W 082°34'2 3.3
2017-Nov-15 12:30N 27°50' W 082°34'2 4.3
2017-Nov-15 12:00N 27°52' W 082°33'0 0.4
2017-Nov-15 11:30N 27°52' W 082°33'0 0.0
2017-Nov-15 11:00N 27°52' W 082°33'0 0.0
2017-Nov-15 10:30N 27°52' W 082°33'0 0.0
2017-Nov-15 10:00N 27°52' W 082°33'0 0.0
2017-Nov-15 09:30N 27°52' W 082°33'0 0.0
2017-Nov-15 09:00N 27°52' W 082°33'0 0.0
2017-Nov-15 08:30N 27°52' W 082°33'0 0.0
2017-Nov-15 08:00N 27°52' W 082°33'0 0.0
2017-Nov-15 07:30N 27°52' W 082°33'0 0.0
2017-Nov-15 07:00N 27°52' W 082°33'0 0.0
2017-Nov-15 06:30N 27°52' W 082°33'0 0.0
2017-Nov-15 06:00N 27°52' W 082°33'0 0.0
2017-Nov-15 05:30N 27°52' W 082°33'0 0.0
2017-Nov-15 05:00N 27°52' W 082°33'0 0.0
2017-Nov-15 04:30N 27°52' W 082°33'0 0.0
2017-Nov-15 04:00N 27°52' W 082°33'0 0.0
2017-Nov-15 03:30N 27°52' W 082°33'0 0.0
2017-Nov-15 03:00N 27°52' W 082°33'2 3.1
2017-Nov-15 02:30N 27°50' W 082°34'5 9.4
2017-Nov-15 02:00N 27°46' W 082°36'5 0.5
2017-Nov-14 16:20N 27°42' W 082°33'310.7
2017-Nov-14 16:00N 27°45' W 082°31'5 9.9
2017-Nov-14 15:30N 27°49' W 082°27'510.9
2017-Nov-14 15:00N 27°54' W 082°26'2 4.1
2017-Nov-14 14:30N 27°56' W 082°26'0 0.0
2017-Nov-14 14:00N 27°56' W 082°26'4 7.3
2017-Nov-14 13:30N 27°52' W 082°26'510.5
2017-Nov-14 13:00N 27°48' W 082°29'5 8.9
2017-Nov-14 12:30N 27°48' W 082°34'4 7.2
2017-Nov-14 12:00N 27°52' W 082°33'0 0.5
2017-Nov-14 11:30N 27°52' W 082°33'0 0.0
2017-Nov-14 11:00N 27°52' W 082°33'4 8.6
2017-Nov-14 10:30N 27°47' W 082°34'510.9
2017-Nov-14 10:00N 27°48' W 082°28'511.0
2017-Nov-14 09:30N 27°54' W 082°26'2 4.4
2017-Nov-14 09:00N 27°56' W 082°26'0 0.0
2017-Nov-14 08:30N 27°56' W 082°26'0 0.0
2017-Nov-14 08:00N 27°56' W 082°26'0 0.0
2017-Nov-14 07:30N 27°56' W 082°26'0 0.0
2017-Nov-14 07:00N 27°56' W 082°26'0 0.0
2017-Nov-14 06:30N 27°56' W 082°26'0 0.0
2017-Nov-14 06:00N 27°56' W 082°26'0 0.0
2017-Nov-14 05:30N 27°56' W 082°26'0 0.0
2017-Nov-14 05:00N 27°56' W 082°26'0 0.0
2017-Nov-14 04:30N 27°56' W 082°26'0 0.0
2017-Nov-14 04:00N 27°56' W 082°26'0 0.0
2017-Nov-14 03:30N 27°56' W 082°26'  
Track history (hours):
 
Tides and Currents Weather Stations Pressure Air Temp Water Temp Dewpoint Dewpoint Depression Visibility Wind Speed Wind Dir Waves Ship Positions

Liberty

Owner: Tampa Tugs Three, LLC, Tampa, FL. More information available from US FCC via Universal Licensing System and Coast Guard Vessel Documentation Center.

Last reported at 2017-Nov-24 03:30 UTC. Time now 2017-Nov-24 03:43 UTC.
Position N 27°54' W 082°26'.

Length 29 m.

Type: Tug. MMSI: 367174670.

Date/timePositionNaut miles runAvg speedWind from/ knotsBaromVisibWave heightAir tempDewpointWater temp
2017-Nov-24 03:30N 27°54' W 082°26'0 0.0
2017-Nov-24 03:00N 27°54' W 082°26'0 0.0
2017-Nov-24 02:30N 27°54' W 082°26'0 0.0
2017-Nov-24 02:00N 27°54' W 082°26'0 0.2
2017-Nov-24 01:30N 27°55' W 082°26'2 3.9
2017-Nov-24 01:00N 27°57' W 082°27'1 1.2
2017-Nov-24 00:30N 27°57' W 082°27'1 1.5
2017-Nov-24 00:00N 27°56' W 082°27'1 2.0
2017-Nov-23 23:30N 27°56' W 082°26'0 0.6
2017-Nov-23 23:00N 27°56' W 082°26'0 0.0
2017-Nov-23 22:30N 27°56' W 082°26'0 0.0
2017-Nov-23 22:00N 27°56' W 082°26'0 0.0
2017-Nov-23 21:30N 27°56' W 082°26'0 0.0
2017-Nov-23 21:00N 27°56' W 082°26'0 0.0
2017-Nov-23 20:30N 27°56' W 082°26'0 0.0
2017-Nov-23 20:00N 27°56' W 082°26'0 0.0
2017-Nov-23 19:30N 27°56' W 082°26'0 0.0
2017-Nov-23 19:00N 27°56' W 082°26'0 0.0
2017-Nov-23 18:30N 27°56' W 082°26'0 0.0
2017-Nov-23 18:00N 27°56' W 082°26'0 0.0
2017-Nov-23 17:30N 27°56' W 082°26'0 0.0
2017-Nov-23 17:00N 27°56' W 082°26'0 0.0
2017-Nov-23 16:30N 27°56' W 082°26'0 0.0
2017-Nov-23 16:00N 27°56' W 082°26'0 0.0
2017-Nov-23 15:30N 27°56' W 082°26'0 0.0
2017-Nov-23 15:00N 27°56' W 082°26'0 0.0
2017-Nov-23 14:30N 27°56' W 082°26'0 0.0
2017-Nov-23 14:00N 27°56' W 082°26'0 0.0
2017-Nov-23 13:30N 27°56' W 082°26'0 0.0
2017-Nov-23 13:00N 27°56' W 082°26'0 0.0
2017-Nov-23 12:30N 27°56' W 082°26'1 1.7
2017-Nov-23 12:00N 27°56' W 082°27'2 3.2
2017-Nov-23 11:30N 27°57' W 082°27'0 0.6
2017-Nov-23 11:00N 27°57' W 082°27'1 1.8
2017-Nov-23 10:30N 27°56' W 082°27'510.0
2017-Nov-23 10:00N 27°51' W 082°27'3 5.6
2017-Nov-23 09:30N 27°51' W 082°24'0 0.1
2017-Nov-23 09:00N 27°51' W 082°24'1 2.7
2017-Nov-23 08:30N 27°51' W 082°25'2 3.4
2017-Nov-23 08:00N 27°50' W 082°27'3 0.6
2017-Nov-23 03:18N 27°48' W 082°25'0 0.1
2017-Nov-23 02:52N 27°48' W 082°25'0 1.1
2017-Nov-23 02:30N 27°48' W 082°25'3 3.9
2017-Nov-23 01:51N 27°51' W 082°27'2 6.8
2017-Nov-23 01:30N 27°51' W 082°24'1 0.9
2017-Nov-23 00:48N 27°51' W 082°23'1 2.0
2017-Nov-23 00:30N 27°51' W 082°24'3 6.0
2017-Nov-23 00:00N 27°53' W 082°26'3 5.4
2017-Nov-22 23:30N 27°56' W 082°26'0 0.0
2017-Nov-22 23:00N 27°56' W 082°26'0 0.0
2017-Nov-22 22:30N 27°56' W 082°26'0 0.0
2017-Nov-22 22:00N 27°56' W 082°26'0 0.0
2017-Nov-22 21:30N 27°56' W 082°26'0 0.0
2017-Nov-22 21:00N 27°56' W 082°26'0 0.0
2017-Nov-22 20:30N 27°56' W 082°26'0 0.0
2017-Nov-22 20:00N 27°56' W 082°26'0 0.0
2017-Nov-22 19:30N 27°56' W 082°26'  
2017-Nov-20 00:30N 27°54' W 082°26'2 3.0
2017-Nov-20 00:00N 27°56' W 082°27'0 0.7
2017-Nov-19 23:30N 27°56' W 082°27'2 4.9
2017-Nov-19 23:00N 27°54' W 082°26'1 1.7
2017-Nov-19 22:30N 27°53' W 082°27'0 0.0
2017-Nov-19 22:00N 27°53' W 082°26'2 3.4
2017-Nov-19 21:30N 27°55' W 082°26'1 1.2
2017-Nov-19 21:00N 27°55' W 082°27'0 0.3
2017-Nov-19 20:30N 27°55' W 082°27'1 1.2
2017-Nov-19 20:00N 27°54' W 082°26'1 2.2
2017-Nov-19 19:30N 27°55' W 082°26'1 1.5
2017-Nov-19 19:00N 27°56' W 082°26'0 0.0
2017-Nov-19 18:30N 27°56' W 082°26'0 0.0
2017-Nov-19 18:00N 27°56' W 082°26'0 0.0
2017-Nov-19 17:30N 27°56' W 082°26'1 2.9
2017-Nov-19 17:00N 27°55' W 082°26'1 1.3
2017-Nov-19 16:30N 27°54' W 082°26'3 5.3
2017-Nov-19 16:00N 27°51' W 082°27'4 8.0
2017-Nov-19 15:30N 27°48' W 082°29'4 7.5
2017-Nov-19 15:00N 27°45' W 082°31'3 0.4
2017-Nov-19 06:13N 27°42' W 082°33'210.7
2017-Nov-19 06:00N 27°44' W 082°32'5 9.7
2017-Nov-19 05:30N 27°48' W 082°29'5 9.8
2017-Nov-19 05:00N 27°52' W 082°27'2 4.4
2017-Nov-19 04:30N 27°54' W 082°26'0 0.0
2017-Nov-19 04:00N 27°54' W 082°26'0 0.0
2017-Nov-19 03:30N 27°54' W 082°26'0 0.0
2017-Nov-19 03:00N 27°54' W 082°26'0 0.0
2017-Nov-19 02:30N 27°54' W 082°26'1 2.7
2017-Nov-19 02:00N 27°56' W 082°26'0 0.4
2017-Nov-19 01:30N 27°56' W 082°26'1 1.4
2017-Nov-19 01:00N 27°55' W 082°26'1 1.6
2017-Nov-19 00:30N 27°55' W 082°27'0 0.3
2017-Nov-19 00:01N 27°55' W 082°27'1 2.2
2017-Nov-18 23:30N 27°56' W 082°26'0 0.0
2017-Nov-18 23:00N 27°56' W 082°26'0 0.0
2017-Nov-18 22:30N 27°56' W 082°26'0 0.0
2017-Nov-18 22:00N 27°56' W 082°26'0 0.0
2017-Nov-18 21:30N 27°56' W 082°26'0 0.0
2017-Nov-18 21:00N 27°56' W 082°26'0 0.0
2017-Nov-18 20:30N 27°56' W 082°26'0 0.0
2017-Nov-18 20:00N 27°56' W 082°26'0 0.0
2017-Nov-18 19:30N 27°56' W 082°26'0 0.0
2017-Nov-18 19:00N 27°56' W 082°26'0 0.0
2017-Nov-18 18:30N 27°56' W 082°26'0 0.0
2017-Nov-18 18:00N 27°56' W 082°26'1 1.4
2017-Nov-18 17:30N 27°55' W 082°26'1 2.4
2017-Nov-18 17:00N 27°54' W 082°26'0 0.2
2017-Nov-18 16:30N 27°54' W 082°26'2 3.1
2017-Nov-18 16:00N 27°53' W 082°27'0 0.9
2017-Nov-18 15:30N 27°53' W 082°26'1 2.6
2017-Nov-18 15:00N 27°54' W 082°26'0 0.0
2017-Nov-18 14:30N 27°54' W 082°26'0 0.0
2017-Nov-18 14:00N 27°54' W 082°26'0 0.0
2017-Nov-18 13:30N 27°54' W 082°26'0 0.0
2017-Nov-18 13:00N 27°54' W 082°26'0 0.0
2017-Nov-18 12:30N 27°54' W 082°26'0 0.0
2017-Nov-18 12:00N 27°54' W 082°26'0 0.0
2017-Nov-18 11:30N 27°54' W 082°26'0 0.0
2017-Nov-18 11:00N 27°54' W 082°26'1 1.5
2017-Nov-18 10:30N 27°55' W 082°27'0 0.0
2017-Nov-18 10:00N 27°55' W 082°27'1 1.7
2017-Nov-18 09:30N 27°56' W 082°26'0 0.6
2017-Nov-18 09:00N 27°56' W 082°26'1 1.6
2017-Nov-18 08:30N 27°55' W 082°26'2 4.8
2017-Nov-18 08:00N 27°53' W 082°27'1 1.2
2017-Nov-18 07:30N 27°53' W 082°26'3 5.1
2017-Nov-18 07:00N 27°56' W 082°26'0 0.0
2017-Nov-18 06:30N 27°56' W 082°26'0 0.0
2017-Nov-18 06:00N 27°56' W 082°26'0 0.0
2017-Nov-18 05:30N 27°56' W 082°26'0 0.0
2017-Nov-18 05:00N 27°56' W 082°26'0 0.0
2017-Nov-18 04:30N 27°56' W 082°26'0 0.0
2017-Nov-18 04:00N 27°56' W 082°26'0 0.0
2017-Nov-18 03:30N 27°56' W 082°26'0 0.0
2017-Nov-18 03:00N 27°56' W 082°26'0 0.0
2017-Nov-18 02:30N 27°56' W 082°26'0 0.0
2017-Nov-18 02:00N 27°56' W 082°26'0 0.0
2017-Nov-18 01:30N 27°56' W 082°26'0 0.0
2017-Nov-18 01:00N 27°56' W 082°26'0 0.0
2017-Nov-18 00:30N 27°56' W 082°26'0 0.0
2017-Nov-18 00:00N 27°56' W 082°26'0 0.0
2017-Nov-17 23:30N 27°56' W 082°26'0 0.0
2017-Nov-17 23:00N 27°56' W 082°26'0 0.0
2017-Nov-17 22:30N 27°56' W 082°26'0 0.0
2017-Nov-17 22:00N 27°56' W 082°26'0 0.0
2017-Nov-17 21:30N 27°56' W 082°26'0 0.0
2017-Nov-17 21:00N 27°56' W 082°26'0 0.0
2017-Nov-17 20:30N 27°56' W 082°26'0 0.0
2017-Nov-17 20:00N 27°56' W 082°26'0 0.0
2017-Nov-17 19:30N 27°56' W 082°26'0 0.0
2017-Nov-17 19:00N 27°56' W 082°26'0 0.0
2017-Nov-17 18:30N 27°56' W 082°26'0 0.0
2017-Nov-17 18:00N 27°56' W 082°26'0 0.0
2017-Nov-17 17:30N 27°56' W 082°26'1 1.6
2017-Nov-17 17:00N 27°56' W 082°27'1 2.4
2017-Nov-17 16:30N 27°57' W 082°27'0 0.1
2017-Nov-17 16:00N 27°57' W 082°27'0 0.1
2017-Nov-17 15:30N 27°57' W 082°27'2 4.1
2017-Nov-17 15:00N 27°55' W 082°26'1 2.3
2017-Nov-17 14:30N 27°56' W 082°26'0 0.0
2017-Nov-17 14:00N 27°56' W 082°26'0 0.0
2017-Nov-17 13:30N 27°56' W 082°26'0 0.0
2017-Nov-17 13:00N 27°56' W 082°26'0 0.0
2017-Nov-17 12:30N 27°56' W 082°26'0 0.0
2017-Nov-17 12:00N 27°56' W 082°26'0 0.0
2017-Nov-17 11:30N 27°56' W 082°26'0 0.0
2017-Nov-17 11:00N 27°56' W 082°26'0 0.0
2017-Nov-17 10:30N 27°56' W 082°26'0 0.0
2017-Nov-17 10:00N 27°56' W 082°26'0 0.0
2017-Nov-17 09:30N 27°56' W 082°26'0 0.0
2017-Nov-17 09:00N 27°56' W 082°26'0 0.0
2017-Nov-17 08:30N 27°56' W 082°26'0 0.0
2017-Nov-17 08:00N 27°56' W 082°26'0 0.0
2017-Nov-17 07:30N 27°56' W 082°26'0 0.0
2017-Nov-17 07:00N 27°56' W 082°26'0 0.0
2017-Nov-17 06:30N 27°56' W 082°26'0 0.0
2017-Nov-17 06:01N 27°56' W 082°26'1 1.4
2017-Nov-17 05:30N 27°56' W 082°27'1 1.7
2017-Nov-17 05:00N 27°57' W 082°27'0 0.0
2017-Nov-17 04:30N 27°57' W 082°27'0 0.0
2017-Nov-17 04:00N 27°57' W 082°27'0 0.7
2017-Nov-17 03:30N 27°57' W 082°27'0 0.0
2017-Nov-17 03:00N 27°57' W 082°27'1 2.2
2017-Nov-17 02:30N 27°56' W 082°27'1 1.8
2017-Nov-17 02:00N 27°55' W 082°27'0 0.1
2017-Nov-17 01:30N 27°55' W 082°27'1 2.0
2017-Nov-17 01:00N 27°56' W 082°26'0 0.0
2017-Nov-17 00:30N 27°56' W 082°26'0 0.0
2017-Nov-17 00:00N 27°56' W 082°26'0 0.0
2017-Nov-16 23:30N 27°56' W 082°26'0 0.0
2017-Nov-16 23:00N 27°56' W 082°26'0 0.0
2017-Nov-16 22:30N 27°56' W 082°26'0 0.0
2017-Nov-16 22:00N 27°56' W 082°26'0 0.0
2017-Nov-16 21:30N 27°56' W 082°26'0 0.0
2017-Nov-16 21:00N 27°56' W 082°26'0 0.0
2017-Nov-16 20:30N 27°56' W 082°26'0 0.0
2017-Nov-16 20:00N 27°56' W 082°26'0 0.0
2017-Nov-16 19:30N 27°56' W 082°26'0 0.0
2017-Nov-16 19:00N 27°56' W 082°26'0 0.0
2017-Nov-16 18:30N 27°56' W 082°26'0 0.0
2017-Nov-16 18:00N 27°56' W 082°26'0 0.0
2017-Nov-16 17:30N 27°56' W 082°26'0 0.0
2017-Nov-16 17:00N 27°56' W 082°26'0 0.0
2017-Nov-16 16:30N 27°56' W 082°26'0 0.0
2017-Nov-16 16:00N 27°56' W 082°26'0 0.0
2017-Nov-16 15:31N 27°56' W 082°26'4 8.9
2017-Nov-16 15:00N 27°52' W 082°27'5 9.8
2017-Nov-16 14:30N 27°48' W 082°30'4 8.3
2017-Nov-16 14:00N 27°49' W 082°34'3 6.1
2017-Nov-16 13:31N 27°52' W 082°33'0 0.5
2017-Nov-16 13:00N 27°52' W 082°33'3 5.7
2017-Nov-16 12:30N 27°49' W 082°34'3 7.1
2017-Nov-16 12:00N 27°47' W 082°31'5 9.7
2017-Nov-16 11:30N 27°50' W 082°27'5 9.9
2017-Nov-16 11:00N 27°55' W 082°26'1 1.4
2017-Nov-16 10:30N 27°56' W 082°26'0 0.0
2017-Nov-16 10:00N 27°56' W 082°26'0 0.0
2017-Nov-16 09:30N 27°56' W 082°26'0 0.0
2017-Nov-16 09:00N 27°56' W 082°26'0 0.0
2017-Nov-16 08:30N 27°56' W 082°26'0 0.0
2017-Nov-16 08:00N 27°56' W 082°26'0 0.0
2017-Nov-16 07:30N 27°56' W 082°26'0 0.0
2017-Nov-16 07:00N 27°56' W 082°26'0 0.0
2017-Nov-16 06:30N 27°56' W 082°26'0 0.0
2017-Nov-16 06:00N 27°56' W 082°26'0 0.0
2017-Nov-16 05:30N 27°56' W 082°26'0 0.0
2017-Nov-16 05:00N 27°56' W 082°26'0 0.0
2017-Nov-16 04:30N 27°56' W 082°26'0 0.0
2017-Nov-16 04:00N 27°56' W 082°26'0 0.0
2017-Nov-16 03:30N 27°56' W 082°26'0 0.0
2017-Nov-16 03:00N 27°56' W 082°26'0 0.0
2017-Nov-16 02:30N 27°56' W 082°26'0 0.0
2017-Nov-16 02:00N 27°56' W 082°26'1 2.4
2017-Nov-16 01:30N 27°55' W 082°26'2 4.1
2017-Nov-16 01:00N 27°57' W 082°27'0 0.0
2017-Nov-16 00:30N 27°57' W 082°27'1 1.7
2017-Nov-16 00:00N 27°56' W 082°27'2 4.0
2017-Nov-15 23:30N 27°54' W 082°26'0 0.4
2017-Nov-15 23:00N 27°54' W 082°26'1 1.0
2017-Nov-15 22:30N 27°54' W 082°26'1 2.9
2017-Nov-15 22:00N 27°56' W 082°26'0 0.4
2017-Nov-15 21:30N 27°56' W 082°26'0 0.9
2017-Nov-15 21:00N 27°55' W 082°25'3 6.2
2017-Nov-15 20:30N 27°52' W 082°27'4 3.5
2017-Nov-15 19:19N 27°48' W 082°25'2 4.9
2017-Nov-15 19:00N 27°49' W 082°26'5 9.4
2017-Nov-15 18:30N 27°47' W 082°31'4 1.2
2017-Nov-15 14:53N 27°47' W 082°36'3 8.6
2017-Nov-15 14:29N 27°50' W 082°34'2 4.9
2017-Nov-15 14:00N 27°52' W 082°33'0 0.4
2017-Nov-15 13:30N 27°52' W 082°33'1 1.2
2017-Nov-15 12:57N 27°51' W 082°34'2 3.3
2017-Nov-15 12:30N 27°50' W 082°34'2 4.3
2017-Nov-15 12:00N 27°52' W 082°33'0 0.4
2017-Nov-15 11:30N 27°52' W 082°33'0 0.0
2017-Nov-15 11:00N 27°52' W 082°33'0 0.0
2017-Nov-15 10:30N 27°52' W 082°33'0 0.0
2017-Nov-15 10:00N 27°52' W 082°33'0 0.0
2017-Nov-15 09:30N 27°52' W 082°33'0 0.0
2017-Nov-15 09:00N 27°52' W 082°33'0 0.0
2017-Nov-15 08:30N 27°52' W 082°33'0 0.0
2017-Nov-15 08:00N 27°52' W 082°33'0 0.0
2017-Nov-15 07:30N 27°52' W 082°33'0 0.0
2017-Nov-15 07:00N 27°52' W 082°33'0 0.0
2017-Nov-15 06:30N 27°52' W 082°33'0 0.0
2017-Nov-15 06:00N 27°52' W 082°33'0 0.0
2017-Nov-15 05:30N 27°52' W 082°33'0 0.0
2017-Nov-15 05:00N 27°52' W 082°33'0 0.0
2017-Nov-15 04:30N 27°52' W 082°33'0 0.0
2017-Nov-15 04:00N 27°52' W 082°33'0 0.0
2017-Nov-15 03:30N 27°52' W 082°33'0 0.0
2017-Nov-15 03:00N 27°52' W 082°33'2 3.1
2017-Nov-15 02:30N 27°50' W 082°34'5 9.4
2017-Nov-15 02:00N 27°46' W 082°36'5 0.5
2017-Nov-14 16:20N 27°42' W 082°33'310.7
2017-Nov-14 16:00N 27°45' W 082°31'5 9.9
2017-Nov-14 15:30N 27°49' W 082°27'510.9
2017-Nov-14 15:00N 27°54' W 082°26'2 4.1
2017-Nov-14 14:30N 27°56' W 082°26'0 0.0
2017-Nov-14 14:00N 27°56' W 082°26'4 7.3
2017-Nov-14 13:30N 27°52' W 082°26'510.5
2017-Nov-14 13:00N 27°48' W 082°29'5 8.9
2017-Nov-14 12:30N 27°48' W 082°34'4 7.2
2017-Nov-14 12:00N 27°52' W 082°33'0 0.5
2017-Nov-14 11:30N 27°52' W 082°33'0 0.0
2017-Nov-14 11:00N 27°52' W 082°33'4 8.6
2017-Nov-14 10:30N 27°47' W 082°34'510.9
2017-Nov-14 10:00N 27°48' W 082°28'511.0
2017-Nov-14 09:30N 27°54' W 082°26'2 4.4
2017-Nov-14 09:00N 27°56' W 082°26'0 0.0
2017-Nov-14 08:30N 27°56' W 082°26'0 0.0
2017-Nov-14 08:00N 27°56' W 082°26'0 0.0
2017-Nov-14 07:30N 27°56' W 082°26'0 0.0
2017-Nov-14 07:00N 27°56' W 082°26'0 0.0
2017-Nov-14 06:30N 27°56' W 082°26'0 0.0
2017-Nov-14 06:00N 27°56' W 082°26'0 0.0
2017-Nov-14 05:30N 27°56' W 082°26'0 0.0
2017-Nov-14 05:00N 27°56' W 082°26'0 0.0
2017-Nov-14 04:30N 27°56' W 082°26'0 0.0
2017-Nov-14 04:00N 27°56' W 082°26'0 0.0
2017-Nov-14 03:30N 27°56' W 082°26'  

Dump ship's entire track history